.
WxDataArchive / Data Records for 2006-09-02
2006-09-01 September 2006 2006-09-03

Data Records for Saturday, 02 September 2006

Time	Temp	Chill	HIndex	Humid	Dewpt	 Wind 	HiWind	WindDir	Rain 	Barom 
-----	----	-----	------	-----	-----	------	------	-------	-----	----- 
00:00	63.1	63.1	63.1	81	57.2	1	2	90	0.00	30.096 
00:05	63.1	63.1	63.1	81	57.2	1	2	90	0.00	30.096 
00:10	63.1	63.1	63.1	81	57.2	1	2	68	0.00	30.096 
00:15	63.1	63.1	63.1	81	57.2	1	4	112	0.00	30.094 
00:20	63.1	63.1	63.1	82	57.5	0	2	112	0.00	30.094 
00:25	62.9	62.9	62.9	82	57.3	0	2	112	0.00	30.094 
00:30	62.9	62.9	62.9	82	57.3	0	2	112	0.00	30.093 
00:35	62.7	62.7	62.7	82	57.1	0	1	112	0.00	30.093 
00:40	62.7	62.7	62.7	83	57.5	1	2	112	0.00	30.093 
00:45	62.6	62.6	62.6	83	57.4	1	2	68	0.00	30.091 
00:50	62.6	62.6	62.6	84	57.7	0	2	68	0.00	30.091 
00:55	62.4	62.4	62.4	83	57.2	1	2	68	0.00	30.091 
01:00	62.4	62.4	62.4	83	57.2	1	4	112	0.00	30.090 
01:05	62.4	62.4	62.4	83	57.2	1	3	90	0.00	30.090 
01:10	62.6	62.6	62.6	82	57.0	1	3	90	0.00	30.090 
01:15	62.7	62.7	62.7	81	56.8	3	5	90	0.00	30.086 
01:20	62.9	62.9	62.9	81	57.0	2	4	90	0.00	30.086 
01:25	62.9	62.9	62.9	81	57.0	2	5	90	0.00	30.086 
01:30	63.1	63.1	63.1	80	56.8	3	7	90	0.00	30.082 
01:35	63.2	63.2	63.2	78	56.2	3	9	90	0.00	30.082 
01:40	63.5	63.5	63.5	77	56.2	4	9	90	0.00	30.082 
01:45	63.5	63.5	63.5	77	56.2	3	6	90	0.00	30.080 
01:50	63.5	63.5	63.5	77	56.2	3	6	90	0.00	30.080 
01:55	63.5	63.5	63.5	77	56.2	3	7	90	0.00	30.080 
02:00	63.5	63.5	63.5	76	55.8	3	7	90	0.00	30.079 
02:05	63.5	63.5	63.5	76	55.8	3	7	90	0.00	30.079 
02:10	63.5	63.5	63.5	76	55.8	3	7	90	0.00	30.079 
02:15	63.5	63.5	63.5	76	55.8	2	6	90	0.00	30.077 
02:20	63.4	63.4	63.4	75	55.3	3	7	90	0.00	30.077 
02:25	63.4	63.4	63.4	75	55.3	4	10	90	0.00	30.077 
02:30	63.4	63.4	63.4	76	55.7	3	10	90	0.00	30.079 
02:35	63.4	63.4	63.4	75	55.3	3	6	90	0.00	30.079 
02:40	63.2	63.2	63.2	76	55.5	2	7	90	0.00	30.079 
02:45	63.2	63.2	63.2	76	55.5	2	4	90	0.00	30.077 
02:50	63.1	63.1	63.1	77	55.8	2	5	90	0.00	30.077 
02:55	63.1	63.1	63.1	76	55.4	3	5	90	0.00	30.077 
03:00	62.9	62.9	62.9	76	55.2	3	5	90	0.00	30.069 
03:05	62.9	62.9	62.9	77	55.6	2	5	68	0.00	30.069 
03:10	62.7	62.7	62.7	76	55.0	3	6	90	0.00	30.069 
03:15	62.7	62.7	62.7	76	55.0	3	5	90	0.00	30.064 
03:20	62.7	62.7	62.7	76	55.0	3	6	90	0.00	30.064 
03:25	62.7	62.7	62.7	76	55.0	2	5	90	0.00	30.064 
03:30	62.6	62.6	62.6	76	54.9	2	5	90	0.00	30.059 
03:35	62.6	62.6	62.6	75	54.6	3	5	90	0.00	30.059 
03:40	62.6	62.6	62.6	76	54.9	2	4	90	0.00	30.059 
03:45	62.6	62.6	62.6	75	54.6	3	7	90	0.00	30.062 
03:50	62.4	62.4	62.4	75	54.4	2	5	90	0.00	30.062 
03:55	62.4	62.4	62.4	75	54.4	2	6	90	0.00	30.062 
04:00	62.3	62.3	62.3	76	54.6	1	5	90	0.00	30.064 
04:05	62.3	62.3	62.3	76	54.6	2	4	90	0.00	30.064 
04:10	62.1	62.1	62.1	75	54.1	1	4	90	0.00	30.064 
04:15	62.1	62.1	62.1	75	54.1	2	4	90	0.00	30.063 
04:20	62.0	62.0	62.0	75	54.0	2	5	90	0.00	30.063 
04:25	62.0	62.0	62.0	76	54.3	1	4	90	0.00	30.063 
04:30	61.8	61.8	61.8	76	54.1	2	6	90	0.00	30.066 
04:35	61.8	61.8	61.8	76	54.1	2	4	112	0.00	30.066 
04:40	61.6	61.6	61.6	77	54.3	1	3	135	0.00	30.066 
04:45	61.5	61.5	61.5	77	54.2	1	3	90	0.00	30.068 
04:50	61.5	61.5	61.5	77	54.2	1	4	90	0.00	30.068 
04:55	61.3	61.3	61.3	78	54.4	1	3	112	0.00	30.068 
05:00	61.2	61.2	61.2	78	54.3	1	3	112	0.00	30.070 
05:05	61.2	61.2	61.2	79	54.6	0	1	112	0.00	30.070 
05:10	61.0	61.0	61.0	79	54.4	0	1	112	0.00	30.070 
05:15	60.9	60.9	60.9	80	54.7	0	3	112	0.00	30.069 
05:20	60.7	60.7	60.7	80	54.5	0	2	68	0.00	30.069 
05:25	60.7	60.7	60.7	80	54.5	0	2	68	0.00	30.069 
05:30	60.7	60.7	60.7	80	54.5	0	2	68	0.00	30.071 
05:35	60.7	60.7	60.7	80	54.5	1	2	68	0.00	30.071 
05:40	60.7	60.7	60.7	80	54.5	0	2	68	0.00	30.071 
05:45	60.5	60.5	60.5	80	54.3	0	2	68	0.00	30.069 
05:50	60.5	60.5	60.5	81	54.6	0	1	68	0.00	30.069 
05:55	60.5	60.5	60.5	81	54.6	0	2	68	0.00	30.069 
06:00	60.4	60.4	60.4	80	54.2	0	2	68	0.00	30.069 
06:05	60.2	60.2	60.2	80	54.0	0	3	68	0.00	30.069 
06:10	60.2	60.2	60.2	81	54.3	1	3	68	0.00	30.069 
06:15	60.2	60.2	60.2	80	54.0	1	3	68	0.00	30.072 
06:20	60.1	60.1	60.1	80	53.9	1	3	112	0.00	30.072 
06:25	60.1	60.1	60.1	80	53.9	1	4	90	0.00	30.072 
06:30	60.1	60.1	60.1	80	53.9	1	2	90	0.00	30.075 
06:35	59.9	59.9	59.9	81	54.1	1	3	45	0.00	30.075 
06:40	59.9	59.9	59.9	81	54.1	1	2	90	0.00	30.075 
06:45	59.8	59.8	59.8	81	54.0	1	3	45	0.00	30.077 
06:50	59.6	59.6	59.6	81	53.8	1	3	45	0.00	30.077 
06:55	59.5	59.5	59.5	81	53.7	1	3	68	0.00	30.077 
07:00	59.3	59.3	59.3	82	53.8	1	3	68	0.00	30.076 
07:05	59.3	59.3	59.3	81	53.5	1	2	90	0.00	30.076 
07:10	59.2	59.2	59.2	81	53.4	1	4	90	0.00	30.076 
07:15	59.2	59.2	59.2	82	53.7	0	2	90	0.00	30.082 
07:20	59.0	59.0	59.0	81	53.2	0	2	90	0.00	30.082 
07:25	59.0	59.0	59.0	81	53.2	0	3	68	0.00	30.082 
07:30	59.0	59.0	59.0	82	53.5	0	3	68	0.00	30.084 
07:35	58.9	58.9	58.9	82	53.4	0	1	68	0.00	30.084 
07:40	58.7	58.7	58.7	82	53.2	0	2	68	0.00	30.084 
07:45	58.7	58.7	58.7	83	53.5	0	1	68	0.00	30.083 
07:50	58.7	58.7	58.7	83	53.5	0	2	68	0.00	30.083 
07:55	58.7	58.7	58.7	83	53.5	0	1	68	0.00	30.083 
08:00	58.7	58.7	58.7	84	53.9	0	2	68	0.00	30.086 
08:05	58.7	58.7	58.7	84	53.9	0	2	68	0.00	30.086 
08:10	58.7	58.7	58.7	84	53.9	0	2	68	0.00	30.086 
08:15	58.9	58.9	58.9	84	54.1	0	1	68	0.00	30.091 
08:20	59.2	59.2	59.2	84	54.4	0	2	68	0.00	30.091 
08:25	59.3	59.3	59.3	83	54.1	1	5	90	0.00	30.091 
08:30	59.6	59.6	59.6	83	54.4	1	4	90	0.00	30.089 
08:35	59.8	59.8	59.8	82	54.3	1	5	112	0.00	30.089 
08:40	59.8	59.8	59.8	82	54.3	1	3	90	0.00	30.089 
08:45	59.9	59.9	59.9	81	54.1	2	5	90	0.00	30.092 
08:50	59.9	59.9	59.9	81	54.1	1	4	90	0.00	30.092 
08:55	60.1	60.1	60.1	81	54.2	1	3	112	0.00	30.092 
09:00	60.2	60.2	60.2	80	54.0	1	3	90	0.00	30.095 
09:05	60.4	60.4	60.4	80	54.2	1	3	68	0.00	30.095 
09:10	60.5	60.5	60.5	78	53.6	1	4	68	0.00	30.095 
09:15	60.9	60.9	60.9	78	54.0	1	4	112	0.00	30.088 
09:20	61.2	61.2	61.2	77	53.9	3	7	112	0.00	30.088 
09:25	61.3	61.3	61.3	75	53.3	2	6	112	0.00	30.088 
09:30	61.5	61.5	61.5	73	52.8	2	4	112	0.00	30.085 
09:35	61.6	61.6	61.6	74	53.2	1	4	90	0.00	30.085 
09:40	61.6	61.6	61.6	74	53.2	2	6	112	0.00	30.085 
09:45	62.1	62.1	62.1	74	53.7	2	4	112	0.00	30.090 
09:50	63.2	63.2	63.2	73	54.4	2	6	112	0.00	30.090 
09:55	64.3	64.3	64.3	71	54.7	2	9	90	0.00	30.090 
10:00	64.8	64.8	64.8	68	54.0	3	8	90	0.00	30.086 
10:05	65.5	65.5	65.5	68	54.7	3	7	90	0.00	30.086 
10:10	66.0	66.0	66.0	67	54.7	3	7	90	0.00	30.086 
10:15	66.3	66.3	66.3	68	55.4	2	5	112	0.00	30.091 
10:20	66.6	66.6	66.6	66	54.9	3	6	112	0.00	30.091 
10:25	66.4	66.4	66.4	66	54.7	4	10	90	0.00	30.091 
10:30	66.9	66.9	66.9	68	56.0	3	6	90	0.00	30.092 
10:35	67.4	67.4	67.4	65	55.2	3	7	112	0.00	30.092 
10:40	67.4	67.4	67.4	65	55.2	3	6	90	0.00	30.092 
10:45	67.6	67.6	67.6	66	55.8	3	7	90	0.00	30.093 
10:50	67.6	67.6	67.6	64	55.0	3	5	90	0.00	30.093 
10:55	67.4	67.4	67.4	67	56.1	3	7	90	0.00	30.093 
11:00	67.9	67.9	67.9	64	55.3	3	7	90	0.00	30.092 
11:05	68.1	68.1	68.1	67	56.7	3	6	90	0.00	30.092 
11:10	68.4	68.4	68.4	65	56.2	2	5	90	0.00	30.092 
11:15	68.8	68.8	68.8	64	56.1	2	6	68	0.00	30.088 
11:20	68.9	68.9	68.9	65	56.6	3	6	90	0.00	30.088 
11:25	69.4	69.4	69.4	64	56.7	2	7	90	0.00	30.088 
11:30	70.1	70.1	70.1	65	57.8	2	4	90	0.00	30.090 
11:35	70.1	70.1	70.1	64	57.3	3	5	90	0.00	30.090 
11:40	70.1	70.1	70.1	63	56.9	2	7	90	0.00	30.090 
11:45	70.3	70.3	70.3	64	57.5	3	8	90	0.00	30.089 
11:50	70.4	70.4	70.4	62	56.7	3	8	112	0.00	30.089 
11:55	70.6	70.6	70.6	62	56.9	3	7	112	0.00	30.089 
12:00	70.8	70.8	70.8	62	57.1	3	9	112	0.00	30.091 
12:05	71.1	71.1	71.1	62	57.4	2	6	90	0.00	30.091 
12:10	71.6	71.6	71.6	66	59.6	2	6	112	0.00	30.091 
12:15	72.1	72.1	72.1	67	60.5	1	4	135	0.00	30.091 
12:20	72.5	72.5	72.5	62	58.7	2	5	45	0.00	30.091 
12:25	72.3	72.3	72.3	62	58.5	1	4	68	0.00	30.091 
12:30	72.7	72.7	72.7	65	60.2	1	4	68	0.00	30.089 
12:35	72.8	72.8	72.8	62	59.0	1	6	45	0.00	30.089 
12:40	72.8	72.8	72.8	61	58.6	3	7	90	0.00	30.089 
12:45	72.8	72.8	72.8	61	58.6	2	6	90	0.00	30.079 
12:50	73.3	73.3	73.3	61	59.0	2	5	135	0.00	30.079 
12:55	73.2	73.2	73.2	62	59.4	2	5	90	0.00	30.079 
13:00	73.0	73.0	73.0	58	57.3	3	12	90	0.00	30.074 
13:05	73.2	73.2	73.2	62	59.4	3	6	112	0.00	30.074 
13:10	73.0	73.0	73.0	63	59.6	2	5	90	0.00	30.074 
13:15	73.2	73.2	73.2	58	57.5	2	7	112	0.00	30.064 
13:20	73.3	73.3	73.3	60	58.6	3	7	112	0.00	30.064 
13:25	73.3	73.3	73.3	61	59.0	2	5	68	0.00	30.064 
13:30	72.8	72.8	72.8	60	58.1	2	7	90	0.00	30.061 
13:35	73.0	73.0	73.0	62	59.2	2	6	90	0.00	30.061 
13:40	73.7	73.7	73.7	60	58.9	3	11	68	0.00	30.061 
13:45	73.5	73.5	73.5	53	55.3	4	7	90	0.00	30.058 
13:50	73.9	73.9	73.9	54	56.2	4	11	112	0.00	30.058 
13:55	73.7	73.7	73.7	55	56.5	4	10	112	0.00	30.058 
14:00	73.9	73.9	73.9	54	56.2	4	11	68	0.00	30.058 
14:05	74.6	74.6	74.6	54	56.8	4	12	90	0.00	30.058 
14:10	74.4	74.4	74.4	53	56.1	3	6	90	0.00	30.058 
14:15	73.9	73.9	73.9	52	55.1	4	8	90	0.00	30.061 
14:20	73.5	73.5	73.5	56	56.8	3	9	90	0.00	30.061 
14:25	73.5	73.5	73.5	56	56.8	3	9	90	0.00	30.061 
14:30	73.5	73.5	73.5	55	56.3	2	6	90	0.00	30.061 
14:35	73.9	73.9	73.9	58	58.2	2	10	112	0.00	30.061 
14:40	73.9	73.9	73.9	55	56.7	3	6	112	0.00	30.061 
14:45	73.2	73.2	73.2	56	56.5	3	9	90	0.00	30.062 
14:50	72.8	72.8	72.8	58	57.1	2	6	112	0.00	30.062 
14:55	72.8	72.8	72.8	58	57.1	3	7	90	0.00	30.062 
15:00	72.5	72.5	72.5	58	56.9	3	10	90	0.00	30.060 
15:05	71.8	71.8	71.8	59	56.7	4	11	112	0.00	30.060 
15:10	71.1	71.1	71.1	58	55.6	5	10	112	0.00	30.060 
15:15	70.4	70.4	70.4	58	54.9	5	11	90	0.00	30.070 
15:20	69.9	69.9	69.9	60	55.4	5	11	90	0.00	30.070 
15:25	69.3	69.3	69.3	61	55.3	6	12	90	0.00	30.070 
15:30	68.9	68.9	68.9	62	55.3	5	10	90	0.00	30.070 
15:35	68.8	68.8	68.8	64	56.1	4	10	90	0.00	30.070 
15:40	68.4	68.4	68.4	64	55.7	5	12	90	0.00	30.070 
15:45	68.6	68.6	68.6	66	56.8	4	10	90	0.00	30.071 
15:50	68.8	68.8	68.8	66	57.0	3	6	90	0.00	30.071 
15:55	68.6	68.6	68.6	65	56.4	4	11	90	0.00	30.071 
16:00	68.4	68.4	68.4	66	56.6	4	11	90	0.00	30.065 
16:05	68.4	68.4	68.4	67	57.0	3	6	90	0.00	30.065 
16:10	68.3	68.3	68.3	67	56.9	4	9	90	0.00	30.065 
16:15	68.4	68.4	68.4	68	57.4	3	9	90	0.00	30.066 
16:20	68.4	68.4	68.4	66	56.6	3	6	90	0.00	30.066 
16:25	68.6	68.6	68.6	67	57.2	3	7	90	0.00	30.066 
16:30	68.6	68.6	68.6	68	57.6	3	7	90	0.00	30.062 
16:35	68.8	68.8	68.8	67	57.4	3	6	90	0.00	30.062 
16:40	68.9	68.9	68.9	68	57.9	3	7	90	0.00	30.062 
16:45	69.1	69.1	69.1	65	56.8	3	6	112	0.00	30.061 
16:50	69.4	69.4	69.4	63	56.2	3	7	112	0.00	30.061 
16:55	69.6	69.6	69.6	61	55.5	5	10	90	0.00	30.061 
17:00	70.1	70.1	70.1	62	56.5	3	11	112	0.00	30.059 
17:05	69.9	69.9	69.9	60	55.4	5	10	90	0.00	30.059 
17:10	69.8	69.8	69.8	60	55.3	4	11	90	0.00	30.059 
17:15	69.6	69.6	69.6	60	55.1	3	7	90	0.00	30.058 
17:20	69.4	69.4	69.4	58	54.0	4	9	90	0.00	30.058 
17:25	69.4	69.4	69.4	57	53.5	3	6	90	0.00	30.058 
17:30	69.4	69.4	69.4	56	53.0	4	9	112	0.00	30.062 
17:35	69.3	69.3	69.3	57	53.4	3	7	90	0.00	30.062 
17:40	69.1	69.1	69.1	57	53.2	3	9	90	0.00	30.062 
17:45	68.9	68.9	68.9	58	53.5	3	6	90	0.00	30.061 
17:50	68.8	68.8	68.8	59	53.9	3	6	112	0.00	30.061 
17:55	68.6	68.6	68.6	59	53.7	2	6	112	0.00	30.061 
18:00	68.4	68.4	68.4	59	53.5	3	6	90	0.00	30.065 
18:05	68.3	68.3	68.3	60	53.9	2	5	90	0.00	30.065 
18:10	68.1	68.1	68.1	60	53.7	3	8	90	0.00	30.065 
18:15	67.9	67.9	67.9	62	54.4	2	5	90	0.00	30.067 
18:20	67.8	67.8	67.8	63	54.7	2	5	90	0.00	30.067 
18:25	67.6	67.6	67.6	63	54.5	2	5	112	0.00	30.067 
18:30	67.4	67.4	67.4	63	54.4	2	5	112	0.00	30.077 
18:35	67.3	67.3	67.3	64	54.7	2	5	90	0.00	30.077 
18:40	67.1	67.1	67.1	65	54.9	2	6	90	0.00	30.077 
18:45	66.9	66.9	66.9	67	55.6	1	5	112	0.00	30.081 
18:50	66.6	66.6	66.6	68	55.7	1	3	90	0.00	30.081 
18:55	66.3	66.3	66.3	71	56.6	1	3	45	0.00	30.081 
19:00	65.8	65.8	65.8	71	56.1	2	5	90	0.00	30.082 
19:05	65.3	65.3	65.3	71	55.6	1	4	90	0.00	30.082 
19:10	65.0	65.0	65.0	72	55.7	1	3	112	0.00	30.082 
19:15	65.0	65.0	65.0	73	56.1	1	3	112	0.00	30.083 
19:20	65.0	65.0	65.0	73	56.1	0	2	112	0.00	30.083 
19:25	65.2	65.2	65.2	73	56.3	1	2	90	0.00	30.083 
19:30	65.3	65.3	65.3	71	55.6	1	3	90	0.00	30.077 
19:35	65.5	65.5	65.5	71	55.8	1	4	90	0.00	30.077 
19:40	65.8	65.8	65.8	70	55.7	1	4	90	0.00	30.077 
19:45	66.0	66.0	66.0	70	55.9	2	5	112	0.00	30.076 
19:50	66.0	66.0	66.0	71	56.3	2	5	112	0.00	30.076 
19:55	65.8	65.8	65.8	71	56.1	2	5	112	0.00	30.076 
20:00	65.6	65.6	65.6	71	55.9	1	6	112	0.00	30.072 
20:05	65.5	65.5	65.5	71	55.8	1	4	90	0.00	30.072 
20:10	65.2	65.2	65.2	72	55.9	1	5	90	0.00	30.072 
20:15	64.8	64.8	64.8	72	55.6	1	3	112	0.00	30.076 
20:20	64.5	64.5	64.5	73	55.6	1	3	112	0.00	30.076 
20:25	64.2	64.2	64.2	73	55.4	1	4	90	0.00	30.076 
20:30	64.0	64.0	64.0	74	55.5	1	3	90	0.00	30.082 
20:35	63.7	63.7	63.7	74	55.3	2	7	90	0.00	30.082 
20:40	63.5	63.5	63.5	74	55.1	3	6	112	0.00	30.082 
20:45	63.5	63.5	63.5	75	55.4	3	6	90	0.00	30.083 
20:50	63.2	63.2	63.2	75	55.1	4	10	90	0.00	30.083 
20:55	62.7	62.7	62.7	76	55.0	4	10	90	0.00	30.083 
21:00	62.3	62.3	62.3	77	55.0	3	6	90	0.00	30.086 
21:05	62.0	62.0	62.0	78	55.1	3	9	90	0.00	30.086 
21:10	61.8	61.8	61.8	78	54.9	3	6	90	0.00	30.086 
21:15	61.5	61.5	61.5	78	54.6	2	5	90	0.00	30.087 
21:20	61.3	61.3	61.3	78	54.4	4	10	90	0.00	30.087 
21:25	61.2	61.2	61.2	78	54.3	2	5	112	0.00	30.087 
21:30	60.9	60.9	60.9	79	54.3	3	7	112	0.00	30.086 
21:35	60.7	60.7	60.7	79	54.1	2	4	90	0.00	30.086 
21:40	60.4	60.4	60.4	80	54.2	2	4	90	0.00	30.086 
21:45	60.1	60.1	60.1	80	53.9	2	5	112	0.00	30.089 
21:50	59.9	59.9	59.9	81	54.1	2	5	90	0.00	30.089 
21:55	59.6	59.6	59.6	82	54.1	2	4	112	0.00	30.089 
22:00	59.3	59.3	59.3	82	53.8	2	3	112	0.00	30.095 
22:05	59.2	59.2	59.2	83	54.0	1	3	68	0.00	30.095 
22:10	58.9	58.9	58.9	83	53.7	1	4	90	0.00	30.095 
22:15	58.7	58.7	58.7	83	53.5	1	3	90	0.00	30.095 
22:20	58.6	58.6	58.6	84	53.8	0	2	90	0.00	30.095 
22:25	58.4	58.4	58.4	84	53.6	0	1	90	0.00	30.095 
22:30	58.1	58.1	58.1	84	53.3	0	1	90	0.00	30.098 
22:35	58.0	58.0	58.0	85	53.5	0	1	90	0.00	30.098 
22:40	58.0	58.0	58.0	86	53.8	0	2	90	0.00	30.098 
22:45	57.8	57.8	57.8	86	53.6	0	2	90	0.00	30.096 
22:50	57.8	57.8	57.8	86	53.6	0	1	90	0.00	30.096 
22:55	57.6	57.6	57.6	86	53.4	0	2	90	0.00	30.096 
23:00	57.6	57.6	57.6	86	53.4	0	0	---	0.00	30.088 
23:05	57.5	57.5	57.5	87	53.7	0	0	---	0.00	30.088 
23:10	57.2	57.2	57.2	87	53.4	0	1	90	0.00	30.088 
23:15	57.0	57.0	57.0	88	53.5	0	0	---	0.00	30.082 
23:20	56.7	56.7	56.7	88	53.2	0	0	---	0.00	30.082 
23:25	56.6	56.6	56.6	88	53.1	0	0	---	0.00	30.082 
23:30	56.3	56.3	56.3	89	53.1	0	0	---	0.00	30.081 
23:35	56.2	56.2	56.2	89	53.0	0	0	---	0.00	30.081 
23:40	56.0	56.0	56.0	90	53.1	0	0	---	0.00	30.081 
23:45	55.9	55.9	55.9	90	53.0	0	0	---	0.00	30.083 
23:50	55.7	55.7	55.7	91	53.1	0	0	---	0.00	30.083 
23:55	55.6	55.6	55.6	91	53.0	0	0	---	0.00	30.083 

CoCoRaHS
IN-AL-39
A2 Web Hosting
Creative Commons License
GoDaddy
Look for:

loaded 2017-10-17 00:25:44 • last modified 2010-11-18 10:43:29
Privacy PolicyDisclaimer
• wx.awcolley.com is powered by PmWiki v.2002016 •
• all content (unless otherwise noted) © 2017 A W Colley